createdAt,value
2023-01-12T00:03:10.032Z,100281.40
2023-01-12T00:08:10.409Z,100286.20
2023-01-12T00:13:09.562Z,100279.00
2023-01-12T00:18:09.443Z,100287.40
2023-01-12T00:23:12.540Z,100290.80
2023-01-12T00:28:11.892Z,100296.00
2023-01-12T00:33:10.895Z,100301.00
2023-01-12T00:38:10.124Z,100305.40
2023-01-12T00:43:26.863Z,100301.00
2023-01-12T00:48:26.683Z,100303.40
2023-01-12T00:53:25.687Z,100308.80
2023-01-12T00:58:24.907Z,100311.40
2023-01-12T01:03:24.302Z,100312.60
2023-01-12T01:08:23.500Z,100314.20
2023-01-12T01:13:22.487Z,100309.00
2023-01-12T01:18:21.880Z,100309.60
2023-01-12T01:23:20.915Z,100310.80
2023-01-12T01:28:21.944Z,100307.40
2023-01-12T01:33:21.145Z,100305.20
2023-01-12T01:38:20.290Z,100305.00
2023-01-12T01:43:23.684Z,100302.20
2023-01-12T01:48:22.809Z,100296.40
2023-01-12T01:53:26.857Z,100300.80
2023-01-12T01:58:33.679Z,100305.60
2023-01-12T02:03:36.793Z,100307.60
2023-01-12T02:08:46.869Z,100312.40
2023-01-12T02:14:03.486Z,100311.00
2023-01-12T02:19:25.358Z,100307.40
2023-01-12T02:25:08.560Z,100315.60
2023-01-12T02:30:49.639Z,100318.60
2023-01-12T02:35:58.068Z,100326.20
2023-01-12T02:41:11.199Z,100319.00
2023-01-12T02:46:21.038Z,100320.40
2023-01-12T02:51:29.256Z,100320.60
2023-01-12T02:56:34.795Z,100333.60
2023-01-12T03:01:35.672Z,100335.60
2023-01-12T03:06:47.107Z,100331.80
2023-01-12T03:11:51.955Z,100344.00
2023-01-12T03:16:52.681Z,100350.60
2023-01-12T03:21:56.957Z,100354.40
2023-01-12T03:27:03.720Z,100362.20
2023-01-12T03:32:03.967Z,100352.00
2023-01-12T03:37:16.980Z,100356.00
2023-01-12T03:42:25.207Z,100355.80
2023-01-12T03:47:30.267Z,100355.60
2023-01-12T03:52:32.406Z,100360.00
2023-01-12T03:57:32.979Z,100361.40
2023-01-12T04:02:32.792Z,100367.40
2023-01-12T04:07:32.086Z,100370.80
2023-01-12T04:12:31.439Z,100367.80
2023-01-12T04:17:30.801Z,100358.40
2023-01-12T04:22:45.529Z,100365.00
2023-01-12T04:27:49.782Z,100372.60
2023-01-12T04:32:49.972Z,100383.20
2023-01-12T04:37:50.005Z,100384.00
2023-01-12T04:43:07.304Z,100382.40
2023-01-12T04:48:10.473Z,100396.80
2023-01-12T04:53:13.490Z,100392.80
2023-01-12T04:58:13.633Z,100390.40
2023-01-12T05:03:17.140Z,100389.40
2023-01-12T05:08:34.203Z,100393.00
2023-01-12T05:13:35.088Z,100393.20
2023-01-12T05:18:34.680Z,100391.40
2023-01-12T05:23:33.997Z,100387.00
2023-01-12T05:28:34.229Z,100387.60
2023-01-12T05:33:34.003Z,100396.20
2023-01-12T05:38:33.700Z,100391.60
2023-01-12T05:43:52.558Z,100404.40
2023-01-12T05:48:53.680Z,100412.60
2023-01-12T05:53:53.160Z,100418.20
2023-01-12T05:58:57.275Z,100412.80
2023-01-12T06:03:58.805Z,100418.00
2023-01-12T06:08:59.305Z,100417.80
2023-01-12T06:13:59.447Z,100426.20
2023-01-12T06:18:58.865Z,100426.60
2023-01-12T06:23:59.170Z,100430.20
2023-01-12T06:28:58.182Z,100431.60
2023-01-12T06:33:57.536Z,100439.40
2023-01-12T06:38:56.294Z,100442.00
2023-01-12T06:43:55.183Z,100442.80
2023-01-12T06:48:56.077Z,100439.20
2023-01-12T06:53:55.464Z,100441.20
2023-01-12T06:58:54.757Z,100440.00
2023-01-12T07:03:56.376Z,100443.80
2023-01-12T07:08:56.280Z,100441.00
2023-01-12T07:13:56.432Z,100457.00
2023-01-12T07:18:56.074Z,100463.60
2023-01-12T07:23:55.866Z,100463.80
2023-01-12T07:28:56.497Z,100466.80
2023-01-12T07:33:58.021Z,100474.40
2023-01-12T07:38:57.177Z,100490.00
2023-01-12T07:43:57.047Z,100481.60
2023-01-12T07:48:56.859Z,100478.80
2023-01-12T07:53:56.180Z,100483.80
2023-01-12T07:58:55.164Z,100495.00
2023-01-12T08:03:54.588Z,100492.00
2023-01-12T08:08:56.063Z,100499.40
2023-01-12T08:13:59.632Z,100512.40
2023-01-12T08:19:03.401Z,100511.60
2023-01-12T08:24:07.440Z,100521.80
2023-01-12T08:29:14.078Z,100524.80
2023-01-12T08:34:14.615Z,100519.20
2023-01-12T08:39:14.946Z,100525.00
2023-01-12T08:44:15.536Z,100528.40
2023-01-12T08:49:16.777Z,100530.60
2023-01-12T08:54:19.279Z,100534.60
2023-01-12T08:59:19.329Z,100532.00
2023-01-12T09:04:18.662Z,100530.40
2023-01-12T09:09:21.112Z,100532.60
2023-01-12T09:14:21.314Z,100535.60
2023-01-12T09:19:20.503Z,100528.00
2023-01-12T09:24:20.310Z,100524.60
2023-01-12T09:29:20.662Z,100521.40
2023-01-12T09:34:19.947Z,100505.40
2023-01-12T09:39:27.889Z,100501.60
2023-01-12T09:44:51.002Z,100503.00
2023-01-12T09:50:04.609Z,100495.40
2023-01-12T09:55:11.761Z,100484.60
2023-01-12T10:00:17.881Z,100486.60
2023-01-12T10:05:39.533Z,100483.60
2023-01-12T10:10:39.487Z,100481.20
2023-01-12T10:15:53.716Z,100481.40
2023-01-12T10:20:53.650Z,100476.40
2023-01-12T10:26:01.674Z,100476.80
2023-01-12T10:31:02.642Z,100469.40
2023-01-12T10:36:06.163Z,100468.60
2023-01-12T10:41:18.119Z,100454.60
2023-01-12T10:46:21.655Z,100449.60
2023-01-12T10:51:49.822Z,100449.20
2023-01-12T10:56:59.008Z,100436.00
2023-01-12T11:02:18.144Z,100437.20
2023-01-12T11:07:22.043Z,100432.20
2023-01-12T11:12:32.634Z,100427.00
2023-01-12T11:17:51.489Z,100423.60
2023-01-12T11:22:56.750Z,100416.20
2023-01-12T11:28:03.762Z,100415.40
2023-01-12T11:33:12.143Z,100405.60
2023-01-12T11:38:19.422Z,100411.00
2023-01-12T11:43:51.583Z,100398.20
2023-01-12T11:49:12.774Z,100397.80
2023-01-12T11:54:18.098Z,100390.60
2023-01-12T11:59:27.536Z,100386.60
2023-01-12T12:04:53.458Z,100385.20
2023-01-12T12:10:18.714Z,100381.00
2023-01-12T12:15:32.031Z,100380.40
2023-01-12T12:20:48.942Z,100377.60
2023-01-12T12:26:02.359Z,100371.40
2023-01-12T12:31:25.288Z,100360.60
2023-01-12T12:36:37.266Z,100366.60
2023-01-12T12:42:05.053Z,100366.40
2023-01-12T12:47:41.765Z,100370.20
2023-01-12T12:52:41.741Z,100363.80
2023-01-12T12:58:05.876Z,100352.60
2023-01-12T13:03:05.180Z,100352.00
2023-01-12T13:08:05.557Z,100354.60
2023-01-12T13:13:26.244Z,100348.40
2023-01-12T13:19:03.613Z,100353.00
2023-01-12T13:24:29.836Z,100336.00
2023-01-12T13:29:45.522Z,100320.40
2023-01-12T13:34:48.269Z,100327.60
2023-01-12T13:39:59.618Z,100318.40
2023-01-12T13:44:58.928Z,100318.60
2023-01-12T13:50:03.901Z,100310.00
2023-01-12T13:55:04.507Z,100313.40
2023-01-12T14:00:09.269Z,100311.00
2023-01-12T14:05:49.964Z,100310.20
2023-01-12T14:11:01.445Z,100298.80
2023-01-12T14:16:31.961Z,100294.20
2023-01-12T14:21:34.241Z,100285.80
2023-01-12T14:26:37.925Z,100285.00
2023-01-12T14:31:41.524Z,100281.00
2023-01-12T14:36:46.670Z,100276.60
2023-01-12T14:42:10.278Z,100265.80
2023-01-12T14:47:10.834Z,100261.80
2023-01-12T14:52:33.597Z,100260.40
2023-01-12T14:57:37.944Z,100260.20
2023-01-12T15:02:41.387Z,100249.80
2023-01-12T15:07:53.759Z,100258.40
2023-01-12T15:12:55.576Z,100248.40
2023-01-12T15:18:14.676Z,100251.40
2023-01-12T15:23:42.197Z,100254.40
2023-01-12T15:28:42.337Z,100259.40
2023-01-12T15:33:40.907Z,100258.20
2023-01-12T15:38:40.088Z,100245.00
2023-01-12T15:43:39.879Z,100250.80
2023-01-12T15:48:39.022Z,100255.20
2023-01-12T15:53:38.406Z,100260.40
2023-01-12T15:58:37.905Z,100253.60
2023-01-12T16:04:04.940Z,100262.40
2023-01-12T16:08:56.547Z,100270.20
2023-01-12T16:13:55.949Z,100269.60
2023-01-12T16:19:00.140Z,100256.40
2023-01-12T16:23:59.385Z,100250.40
2023-01-12T16:28:59.260Z,100253.20
2023-01-12T16:33:58.917Z,100253.00
2023-01-12T16:39:00.652Z,100255.60
2023-01-12T16:44:03.428Z,100252.40
2023-01-12T16:49:05.418Z,100256.20
2023-01-12T16:54:05.040Z,100252.80
2023-01-12T16:59:04.626Z,100251.20
2023-01-12T17:04:05.616Z,100254.80
2023-01-12T17:09:07.799Z,100249.00
2023-01-12T17:14:23.138Z,100246.80
2023-01-12T17:19:24.345Z,100246.60
2023-01-12T17:24:24.952Z,100246.00
2023-01-12T17:29:27.082Z,100237.20
2023-01-12T17:34:29.950Z,100235.20
2023-01-12T17:39:29.378Z,100225.80
2023-01-12T17:44:28.701Z,100220.60
2023-01-12T17:49:29.088Z,100218.60
2023-01-12T17:54:28.449Z,100210.40
2023-01-12T17:59:28.340Z,100208.20
2023-01-12T18:04:27.513Z,100206.40
2023-01-12T18:09:27.970Z,100203.20
2023-01-12T18:14:27.623Z,100198.20
2023-01-12T18:19:27.817Z,100201.60
2023-01-12T18:24:27.253Z,100197.20
2023-01-12T18:29:26.878Z,100196.80
2023-01-12T18:34:27.500Z,100188.40
2023-01-12T18:39:26.954Z,100186.60
2023-01-12T18:44:27.769Z,100183.00
2023-01-12T18:49:30.328Z,100174.80
2023-01-12T18:54:32.933Z,100162.60
2023-01-12T18:59:35.624Z,100157.80
2023-01-12T19:04:57.061Z,100156.00
2023-01-12T19:09:57.099Z,100154.20
2023-01-12T19:15:14.548Z,100154.20
2023-01-12T19:20:17.353Z,100148.60
2023-01-12T19:25:40.304Z,100150.80
2023-01-12T19:30:41.446Z,100149.60
2023-01-12T19:35:42.189Z,100142.20
2023-01-12T19:40:49.518Z,100144.60
2023-01-12T19:45:50.971Z,100142.60
2023-01-12T19:50:51.014Z,100145.20
2023-01-12T19:55:51.604Z,100143.80
2023-01-12T20:00:51.665Z,100146.80
2023-01-12T20:05:52.542Z,100140.40
2023-01-12T20:10:59.164Z,100140.00
2023-01-12T20:15:58.991Z,100149.80
2023-01-12T20:21:00.789Z,100143.00
2023-01-12T20:26:01.015Z,100143.00
2023-01-12T20:31:01.634Z,100147.40
2023-01-12T20:36:01.527Z,100141.00
2023-01-12T20:41:02.401Z,100141.80
2023-01-12T20:46:02.003Z,100136.80
2023-01-12T20:51:03.423Z,100130.80
2023-01-12T20:56:04.989Z,100128.20
2023-01-12T21:01:09.255Z,100121.20
2023-01-12T21:06:13.893Z,100121.20
2023-01-12T21:11:15.176Z,100118.40
2023-01-12T21:16:19.742Z,100124.60
2023-01-12T21:21:18.414Z,100128.40
2023-01-12T21:26:17.934Z,100122.40
2023-01-12T21:31:17.934Z,100119.60
2023-01-12T21:36:20.054Z,100111.60
2023-01-12T21:41:23.432Z,100110.40
2023-01-12T21:46:24.186Z,100110.40
2023-01-12T21:51:23.705Z,100106.00
2023-01-12T21:56:23.060Z,100104.80
2023-01-12T22:01:22.614Z,100114.00
2023-01-12T22:06:22.026Z,100108.20
2023-01-12T22:11:21.492Z,100108.20
2023-01-12T22:16:21.178Z,100100.20
2023-01-12T22:21:22.486Z,100102.00
2023-01-12T22:26:22.258Z,100093.80
2023-01-12T22:31:24.268Z,100086.80
2023-01-12T22:36:23.844Z,100086.60
2023-01-12T22:41:24.970Z,100074.60
2023-01-12T22:46:34.199Z,100073.80
2023-01-12T22:51:33.633Z,100065.00
2023-01-12T22:56:33.177Z,100055.20
2023-01-12T23:01:33.671Z,100052.40
2023-01-12T23:06:37.371Z,100052.00
2023-01-12T23:11:36.367Z,100060.40
2023-01-12T23:16:35.484Z,100063.20
2023-01-12T23:21:34.722Z,100060.00
2023-01-12T23:26:35.620Z,100054.20
2023-01-12T23:31:37.497Z,100052.00
2023-01-12T23:36:37.327Z,100058.60
2023-01-12T23:41:39.350Z,100060.20
2023-01-12T23:46:43.196Z,100061.00
2023-01-12T23:51:43.309Z,100062.40
2023-01-12T23:56:42.610Z,100061.40
